Washington, DC (20082)

2:40 PM EDT on September 19, 2014 (GMT -0400)
H Street Corridor - NoMa | Change Station
CLOSE
Current Station
Personal Weather Station
Location: Washington, DC
Elevation: 56 ft
Nearby Weather Stations

Elev 56 ft 38.90 °N, 77.00 °W | Updated 9 seconds ago

Mostly Cloudy
Mostly Cloudy
77.2 °F
Feels Like 79 °F
N
0.0
Wind Variable Wind from SE
Gusts 6.0 mph

Today
High -- | Low -- °F
--% Chance of Precip.
Yesterday
High -- | Low -- °F
Precip. -- in
6:53 AM 7:09 PM
Waning Crescent, 17% visible
Pressure 30.26 in
Visibility 10.0 miles
Clouds Scattered Clouds 5500 ft
Mostly Cloudy 9000 ft
Heat Index 79 °F
Dew Point 57 °F
Humidity 50%
Rainfall 0.00 in
Snow Depth Not available.
UV 4 out of 12
Pollen 4.50 out of 12
Air Quality Not available.
Flu Activity Not available.
METAR KDCA 191752Z 04005KT 10SM SCT055 BKN090 24/12 A3026 RMK AO2 SLP247 T02440122 10244 20161 58002

More Conditions Fewer Conditions

Pressure 30.26 in
Visibility 10.0 miles
Clouds Scattered Clouds 5500 ft
Mostly Cloudy 9000 ft
Heat Index 79 °F
Dew Point 57 °F
Humidity 50%
Rainfall 0.00 in
Snow Depth Not available.
UV 4 out of 12
Pollen 4.50 out of 12
Air Quality Not available.
Flu Activity Not available.
METAR KDCA 191752Z 04005KT 10SM SCT055 BKN090 24/12 A3026 RMK AO2 SLP247 T02440122 10244 20161 58002

More Conditions Fewer Conditions

10-Day Weather Forecast

Almanac

Astronomy

Sep. 19, 2014 Rise Set
Actual Time 6:53 AM EDT 7:09 PM EDT
Civil Twilight 6:26 AM EDT 7:36 PM EDT
Nautical Twilight 5:55 AM EDT 8:07 PM EDT
Astronomical Twilight 5:23 AM EDT 8:39 PM EDT
Moon 2:38 AM EDT 4:35 PM EDT
Length of Visible Light 13h 10m
Length of Day
12h 16m
Tomorrow will be 2m 31s shorter.
Waning Crescent, 17% of the Moon is Illuminated
Today
Waning Crescent
Sep 24
New
Oct 1
First Quarter
Oct 8
Full
Oct 15
Last Quarter

Today's Extremes

State Highs State Lows

Community

WunderPhotos

Upload Photos

1,754,680 photos uploaded!

WunderBlogs® & News

Nearby

Snow Depth

Station Depth Elevation
No new snow has been reported.

Earthquake Activity

City Distance Mag. Time & Date
No recent earthquake activity has been reported nearby.
Minimum magnitude displayed is 2.5.

Coastal Water Temperatures

Place Temperature
Washington, DC 73.9 °F
Baltimore, MD 75.9 °F
Solomons Island, MD 75.9 °F

Nearby Weather Stations